createdAt,value
2016-05-22T00:00:16.047Z,24.68
2016-05-22T00:01:16.049Z,24.65
2016-05-22T00:02:16.068Z,24.78
2016-05-22T00:03:16.055Z,24.65
2016-05-22T00:04:16.073Z,24.64
2016-05-22T00:05:15.920Z,24.67
2016-05-22T00:06:16.079Z,24.64
2016-05-22T00:07:16.097Z,24.69
2016-05-22T00:08:16.101Z,24.65
2016-05-22T00:09:16.103Z,24.65
2016-05-22T00:10:16.120Z,24.69
2016-05-22T00:11:16.046Z,24.62
2016-05-22T00:12:16.376Z,24.67
2016-05-22T00:13:16.144Z,24.55
2016-05-22T00:14:16.554Z,24.62
2016-05-22T00:15:16.150Z,24.62
2016-05-22T00:16:15.997Z,24.55
2016-05-22T00:17:16.155Z,24.58
2016-05-22T00:18:16.173Z,24.6
2016-05-22T00:19:16.005Z,24.64
2016-05-22T00:20:16.178Z,24.5
2016-05-22T00:21:16.181Z,24.57
2016-05-22T00:22:16.184Z,24.52
2016-05-22T00:23:16.202Z,24.57
2016-05-22T00:24:16.237Z,24.57
2016-05-22T00:25:16.239Z,24.57
2016-05-22T00:26:16.226Z,24.55
2016-05-22T00:27:16.714Z,24.64
2016-05-22T00:28:16.232Z,24.61
2016-05-22T00:29:16.235Z,24.64
2016-05-22T00:30:16.237Z,24.52
2016-05-22T00:31:16.255Z,24.64
2016-05-22T00:32:16.258Z,24.52
2016-05-22T00:33:16.260Z,24.58
2016-05-22T00:34:16.107Z,24.6
2016-05-22T00:35:16.266Z,24.55
2016-05-22T00:36:16.269Z,24.57
2016-05-22T00:37:16.287Z,24.53
2016-05-22T00:38:16.134Z,24.64
2016-05-22T00:39:16.293Z,24.58
2016-05-22T00:40:16.295Z,24.67
2016-05-22T00:41:16.314Z,24.55
2016-05-22T00:42:17.035Z,24.61
2016-05-22T00:43:16.319Z,24.55
2016-05-22T00:44:16.323Z,24.58
2016-05-22T00:45:16.340Z,24.52
2016-05-22T00:46:16.342Z,24.53
2016-05-22T00:47:16.190Z,24.53
2016-05-22T00:48:16.364Z,24.47
2016-05-22T00:49:16.366Z,24.49
2016-05-22T00:50:16.369Z,24.53
2016-05-22T00:51:16.372Z,24.53
2016-05-22T00:52:16.375Z,24.5
2016-05-22T00:53:16.236Z,24.46
2016-05-22T00:54:16.395Z,24.49
2016-05-22T00:55:16.398Z,24.5
2016-05-22T00:56:16.400Z,24.58
2016-05-22T00:57:16.732Z,24.47
2016-05-22T00:58:16.547Z,24.53
2016-05-22T00:59:16.269Z,24.53
2016-05-22T01:00:16.271Z,24.53
2016-05-22T01:01:16.446Z,24.57
2016-05-22T01:02:16.448Z,24.49
2016-05-22T01:03:16.294Z,24.5
2016-05-22T01:04:16.454Z,24.47
2016-05-22T01:05:16.299Z,24.46
2016-05-22T01:06:16.474Z,24.52
2016-05-22T01:07:16.477Z,24.46
2016-05-22T01:08:16.496Z,24.49
2016-05-22T01:09:16.498Z,24.53
2016-05-22T01:10:16.345Z,24.55
2016-05-22T01:11:16.363Z,24.53
2016-05-22T01:12:16.850Z,24.42
2016-05-22T01:13:16.525Z,24.52
2016-05-22T01:14:16.528Z,24.5
2016-05-22T01:15:16.545Z,24.47
2016-05-22T01:16:16.534Z,24.45
2016-05-22T01:17:16.536Z,24.49
2016-05-22T01:18:16.553Z,24.43
2016-05-22T01:19:16.556Z,24.49
2016-05-22T01:20:16.559Z,24.52
2016-05-22T01:21:16.562Z,24.52
2016-05-22T01:22:16.581Z,24.53
2016-05-22T01:23:16.427Z,24.5
2016-05-22T01:24:16.586Z,24.47
2016-05-22T01:25:16.432Z,24.49
2016-05-22T01:26:16.591Z,24.47
2016-05-22T01:27:17.375Z,24.45
2016-05-22T01:28:16.455Z,24.47
2016-05-22T01:29:16.614Z,24.45
2016-05-22T01:30:16.632Z,24.46
2016-05-22T01:31:16.635Z,24.45
2016-05-22T01:32:16.482Z,24.46
2016-05-22T01:33:16.485Z,24.47
2016-05-22T01:34:16.487Z,24.45
2016-05-22T01:35:16.662Z,24.43
2016-05-22T01:36:16.665Z,24.46
2016-05-22T01:37:16.668Z,24.47
2016-05-22T01:38:16.670Z,24.47
2016-05-22T01:39:16.673Z,24.47
2016-05-22T01:40:16.690Z,24.47
2016-05-22T01:41:16.538Z,24.45
2016-05-22T01:42:16.884Z,24.42
2016-05-22T01:43:16.715Z,24.45
2016-05-22T01:44:16.717Z,24.42
2016-05-22T01:45:16.720Z,24.42
2016-05-22T01:46:16.723Z,24.4
2016-05-22T01:47:16.585Z,24.43
2016-05-22T01:48:16.744Z,24.39
2016-05-22T01:49:16.762Z,24.47
2016-05-22T01:50:16.750Z,24.39
2016-05-22T01:51:16.767Z,24.47
2016-05-22T01:52:16.661Z,24.45
2016-05-22T01:53:16.819Z,24.46
2016-05-22T01:54:16.460Z,24.45
2016-05-22T01:55:16.794Z,24.35
2016-05-22T01:56:16.781Z,24.45
2016-05-22T01:57:16.783Z,24.39
2016-05-22T01:58:17.052Z,24.39
2016-05-22T01:59:16.820Z,24.47
2016-05-22T02:00:16.823Z,24.42
2016-05-22T02:01:16.667Z,24.42
2016-05-22T02:02:16.828Z,24.47
2016-05-22T02:03:16.830Z,24.47
2016-05-22T02:04:16.866Z,24.47
2016-05-22T02:05:16.852Z,24.49
2016-05-22T02:06:16.852Z,24.5
2016-05-22T02:07:16.870Z,24.52
2016-05-22T02:08:16.561Z,24.55
2016-05-22T02:09:16.876Z,24.5
2016-05-22T02:10:16.722Z,24.5
2016-05-22T02:11:16.881Z,24.58
2016-05-22T02:12:16.993Z,24.55
2016-05-22T02:13:16.902Z,24.57
2016-05-22T02:14:16.905Z,24.5
2016-05-22T02:15:16.923Z,24.46
2016-05-22T02:16:16.942Z,24.57
2016-05-22T02:17:16.929Z,24.52
2016-05-22T02:18:16.931Z,24.5
2016-05-22T02:19:16.934Z,24.62
2016-05-22T02:20:16.953Z,24.58
2016-05-22T02:21:16.799Z,24.53
2016-05-22T02:22:16.958Z,24.52
2016-05-22T02:23:16.976Z,24.57
2016-05-22T02:24:16.994Z,24.49
2016-05-22T02:25:16.981Z,24.52
2016-05-22T02:26:16.828Z,24.61
2016-05-22T02:27:16.847Z,24.57
2016-05-22T02:28:16.989Z,24.49
2016-05-22T02:29:16.852Z,24.57
2016-05-22T02:30:17.026Z,24.52
2016-05-22T02:31:17.013Z,24.53
2016-05-22T02:32:17.031Z,24.5
2016-05-22T02:33:17.034Z,24.5
2016-05-22T02:34:17.053Z,24.55
2016-05-22T02:35:17.039Z,24.52
2016-05-22T02:36:17.042Z,24.55
2016-05-22T02:37:17.044Z,24.53
2016-05-22T02:38:17.063Z,24.53
2016-05-22T02:39:17.066Z,24.49
2016-05-22T02:40:17.069Z,24.52
2016-05-22T02:41:16.930Z,24.52
2016-05-22T02:42:17.105Z,24.45
2016-05-22T02:43:17.108Z,24.52
2016-05-22T02:44:17.095Z,24.52
2016-05-22T02:45:17.097Z,24.49
2016-05-22T02:46:17.116Z,24.53
2016-05-22T02:47:16.962Z,24.43
2016-05-22T02:48:17.121Z,24.47
2016-05-22T02:49:17.140Z,24.46
2016-05-22T02:50:17.142Z,24.47
2016-05-22T02:51:16.989Z,24.46
2016-05-22T02:52:17.148Z,24.46
2016-05-22T02:53:17.166Z,24.45
2016-05-22T02:54:17.169Z,24.47
2016-05-22T02:55:17.172Z,24.49
2016-05-22T02:56:17.017Z,24.47
2016-05-22T02:57:17.505Z,24.49
2016-05-22T02:58:17.195Z,24.5
2016-05-22T02:59:17.197Z,24.49
2016-05-22T03:00:17.200Z,24.47
2016-05-22T03:01:17.219Z,24.35
2016-05-22T03:02:31.318Z,24.35
2016-05-22T03:03:17.224Z,24.45
2016-05-22T03:04:17.226Z,24.4
2016-05-22T03:05:17.230Z,24.35
2016-05-22T03:06:17.247Z,24.42
2016-05-22T03:07:17.094Z,24.42
2016-05-22T03:08:17.097Z,24.32
2016-05-22T03:09:17.256Z,24.37
2016-05-22T03:10:17.102Z,24.4
2016-05-22T03:11:17.276Z,24.35
2016-05-22T03:12:17.451Z,24.35
2016-05-22T03:13:17.126Z,24.35
2016-05-22T03:14:17.129Z,24.37
2016-05-22T03:15:17.303Z,24.4
2016-05-22T03:16:17.306Z,24.34
2016-05-22T03:17:17.309Z,24.42
2016-05-22T03:18:17.311Z,24.39
2016-05-22T03:19:17.174Z,24.39
2016-05-22T03:20:17.332Z,24.42
2016-05-22T03:21:17.335Z,24.37
2016-05-22T03:22:17.337Z,24.37
2016-05-22T03:23:17.200Z,24.31
2016-05-22T03:24:17.359Z,24.37
2016-05-22T03:25:17.205Z,24.32
2016-05-22T03:26:17.208Z,24.43
2016-05-22T03:27:17.898Z,24.37
2016-05-22T03:28:17.775Z,24.37
2016-05-22T03:29:17.231Z,24.43
2016-05-22T03:30:17.422Z,24.34
2016-05-22T03:31:17.301Z,24.35
2016-05-22T03:32:17.335Z,24.42
2016-05-22T03:33:17.526Z,24.37
2016-05-22T03:34:17.576Z,24.42
2016-05-22T03:35:17.599Z,24.47
2016-05-22T03:36:17.613Z,24.4
2016-05-22T03:37:17.626Z,24.35
2016-05-22T03:38:17.641Z,24.32
2016-05-22T03:39:17.654Z,24.32
2016-05-22T03:40:17.524Z,24.43
2016-05-22T03:41:17.686Z,24.34
2016-05-22T03:42:17.537Z,24.39
2016-05-22T03:43:17.668Z,24.35
2016-05-22T03:44:17.707Z,24.35
2016-05-22T03:45:17.728Z,24.43
2016-05-22T03:46:17.733Z,24.34
2016-05-22T03:47:17.581Z,24.31
2016-05-22T03:48:17.757Z,24.37
2016-05-22T03:49:17.762Z,24.35
2016-05-22T03:50:17.764Z,24.39
2016-05-22T03:51:17.768Z,24.39
2016-05-22T03:52:17.786Z,24.42
2016-05-22T03:53:17.789Z,24.34
2016-05-22T03:54:17.792Z,24.43
2016-05-22T03:55:17.795Z,24.35
2016-05-22T03:56:17.814Z,24.37
2016-05-22T03:57:18.003Z,24.4
2016-05-22T03:58:18.225Z,24.43
2016-05-22T03:59:17.821Z,24.45
2016-05-22T04:00:17.840Z,24.34
2016-05-22T04:01:17.827Z,24.37
2016-05-22T04:02:20.689Z,24.39
2016-05-22T04:03:17.848Z,24.35
2016-05-22T04:04:17.694Z,24.42
2016-05-22T04:05:17.884Z,24.32
2016-05-22T04:06:17.715Z,24.35
2016-05-22T04:07:17.875Z,24.31
2016-05-22T04:08:17.721Z,24.39
2016-05-22T04:09:17.895Z,24.28
2016-05-22T04:10:17.882Z,24.43
2016-05-22T04:11:17.901Z,24.35
2016-05-22T04:12:17.951Z,24.35
2016-05-22T04:13:18.344Z,24.35
2016-05-22T04:14:17.909Z,24.37
2016-05-22T04:15:17.926Z,24.35
2016-05-22T04:16:17.929Z,24.43
2016-05-22T04:17:17.932Z,24.35
2016-05-22T04:18:17.951Z,24.32
2016-05-22T04:19:17.954Z,24.35
2016-05-22T04:20:17.957Z,24.32
2016-05-22T04:21:17.958Z,24.4
2016-05-22T04:22:17.806Z,24.35
2016-05-22T04:23:17.980Z,24.37
2016-05-22T04:24:17.826Z,24.4
2016-05-22T04:25:18.001Z,24.42
2016-05-22T04:26:18.004Z,24.42
2016-05-22T04:27:18.006Z,24.35
2016-05-22T04:28:18.759Z,24.35
2016-05-22T04:29:18.012Z,24.37
2016-05-22T04:30:18.030Z,24.43
2016-05-22T04:31:18.049Z,24.35
2016-05-22T04:32:18.035Z,24.39
2016-05-22T04:33:18.038Z,24.35
2016-05-22T04:34:18.041Z,24.39
2016-05-22T04:35:17.918Z,24.37
2016-05-22T04:36:18.062Z,24.35
2016-05-22T04:37:18.080Z,24.32
2016-05-22T04:38:18.083Z,24.34
2016-05-22T04:39:17.913Z,24.35
2016-05-22T04:40:18.088Z,24.4
2016-05-22T04:41:18.090Z,24.39
2016-05-22T04:42:18.031Z,24.34
2016-05-22T04:43:18.096Z,24.3
2016-05-22T04:44:18.115Z,24.46
2016-05-22T04:45:18.117Z,24.34
2016-05-22T04:46:17.964Z,24.35
2016-05-22T04:47:17.967Z,24.34
2016-05-22T04:48:17.984Z,24.34
2016-05-22T04:49:18.143Z,24.43
2016-05-22T04:50:18.146Z,24.39
2016-05-22T04:51:17.993Z,24.43
2016-05-22T04:52:18.167Z,24.35
2016-05-22T04:53:18.154Z,24.3
2016-05-22T04:54:18.172Z,24.37
2016-05-22T04:55:18.175Z,24.31
2016-05-22T04:56:18.194Z,24.3
2016-05-22T04:57:18.399Z,24.39
2016-05-22T04:58:18.199Z,24.35
2016-05-22T04:59:18.249Z,24.3
2016-05-22T05:00:18.220Z,24.43
2016-05-22T05:01:18.222Z,24.3
2016-05-22T05:02:18.085Z,24.3
2016-05-22T05:03:18.243Z,24.3
2016-05-22T05:04:18.230Z,24.43
2016-05-22T05:05:18.249Z,24.35
2016-05-22T05:06:18.096Z,24.31
2016-05-22T05:07:18.098Z,24.3
2016-05-22T05:08:18.273Z,24.34
2016-05-22T05:09:18.276Z,24.27
2016-05-22T05:10:18.278Z,24.39
2016-05-22T05:11:18.297Z,24.37
2016-05-22T05:12:17.987Z,24.34
2016-05-22T05:13:18.239Z,24.34
2016-05-22T05:14:18.304Z,24.4
2016-05-22T05:15:18.307Z,24.37
2016-05-22T05:16:18.309Z,24.37
2016-05-22T05:17:18.329Z,24.42
2016-05-22T05:18:18.331Z,24.37
2016-05-22T05:19:18.333Z,24.37
2016-05-22T05:20:18.336Z,24.37
2016-05-22T05:21:18.339Z,24.34
2016-05-22T05:22:18.357Z,24.4
2016-05-22T05:23:18.376Z,24.4
2016-05-22T05:24:18.363Z,24.49
2016-05-22T05:25:18.380Z,24.47
2016-05-22T05:26:18.383Z,24.5
2016-05-22T05:27:18.387Z,24.49
2016-05-22T05:28:18.405Z,24.53
2016-05-22T05:29:18.408Z,24.47
2016-05-22T05:30:18.270Z,24.52
2016-05-22T05:31:18.413Z,24.52
2016-05-22T05:32:18.415Z,24.55
2016-05-22T05:33:18.434Z,24.69
2016-05-22T05:34:18.436Z,24.65
2016-05-22T05:35:18.439Z,24.87
2016-05-22T05:36:18.286Z,24.85
2016-05-22T05:37:18.461Z,24.83
2016-05-22T05:38:18.463Z,24.93
2016-05-22T05:39:18.482Z,24.98
2016-05-22T05:40:18.484Z,24.99
2016-05-22T05:41:18.487Z,25.09
2016-05-22T05:42:18.505Z,25.15
2016-05-22T05:43:18.539Z,25.1
2016-05-22T05:44:18.510Z,25.33
2016-05-22T05:45:18.528Z,25.24
2016-05-22T05:46:18.531Z,25.3
2016-05-22T05:47:18.534Z,25.24
2016-05-22T05:48:18.551Z,25.4
2016-05-22T05:49:18.555Z,25.35
2016-05-22T05:50:18.401Z,25.38
2016-05-22T05:51:18.420Z,25.33
2016-05-22T05:52:18.578Z,25.36
2016-05-22T05:53:18.426Z,25.39
2016-05-22T05:54:18.443Z,25.45
2016-05-22T05:55:18.603Z,25.36
2016-05-22T05:56:18.620Z,25.47
2016-05-22T05:57:18.623Z,25.5
2016-05-22T05:58:18.533Z,25.43
2016-05-22T05:59:18.644Z,25.36
2016-05-22T06:00:18.491Z,25.32
2016-05-22T06:01:18.666Z,25.28
2016-05-22T06:02:32.780Z,25.18
2016-05-22T06:03:18.702Z,25.2
2016-05-22T06:04:18.532Z,25.13
2016-05-22T06:05:18.692Z,25.14
2016-05-22T06:06:18.772Z,25.17
2016-05-22T06:07:18.713Z,25.08
2016-05-22T06:08:18.716Z,25.13
2016-05-22T06:09:18.718Z,25.1
2016-05-22T06:10:18.736Z,25.02
2016-05-22T06:11:18.755Z,25.05
2016-05-22T06:12:18.757Z,25
2016-05-22T06:13:18.604Z,24.96
2016-05-22T06:14:18.779Z,25.02
2016-05-22T06:15:18.610Z,24.96
2016-05-22T06:16:18.784Z,24.96
2016-05-22T06:17:18.802Z,24.95
2016-05-22T06:18:18.837Z,24.98
2016-05-22T06:19:18.808Z,24.91
2016-05-22T06:20:18.810Z,24.96
2016-05-22T06:21:18.828Z,24.88
2016-05-22T06:22:18.831Z,24.93
2016-05-22T06:23:18.834Z,24.93
2016-05-22T06:24:18.853Z,24.96
2016-05-22T06:25:18.856Z,25.02
2016-05-22T06:26:18.701Z,25
2016-05-22T06:27:18.860Z,24.96
2016-05-22T06:28:19.520Z,25.13
2016-05-22T06:29:18.881Z,25.18
2016-05-22T06:30:18.900Z,25.23
2016-05-22T06:31:18.762Z,25.3
2016-05-22T06:32:18.906Z,25.33
2016-05-22T06:33:18.922Z,25.46
2016-05-22T06:34:18.925Z,25.55
2016-05-22T06:35:18.944Z,25.57
2016-05-22T06:36:18.947Z,25.51
2016-05-22T06:37:18.950Z,25.4
2016-05-22T06:38:18.983Z,25.3
2016-05-22T06:39:18.970Z,25.23
2016-05-22T06:40:18.973Z,25.1
2016-05-22T06:41:18.991Z,25.21
2016-05-22T06:42:18.854Z,25.2
2016-05-22T06:43:19.341Z,25.13
2016-05-22T06:44:19.016Z,25.17
2016-05-22T06:45:19.034Z,25.14
2016-05-22T06:46:19.036Z,25.18
2016-05-22T06:47:19.040Z,25.23
2016-05-22T06:48:19.042Z,25.18
2016-05-22T06:49:19.060Z,25.21
2016-05-22T06:50:19.063Z,25.08
2016-05-22T06:51:19.081Z,25.21
2016-05-22T06:52:18.927Z,25.1
2016-05-22T06:53:19.101Z,25.13
2016-05-22T06:54:19.104Z,25.15
2016-05-22T06:55:19.107Z,25.17
2016-05-22T06:56:18.970Z,25.09
2016-05-22T06:57:18.972Z,25.1
2016-05-22T06:58:19.694Z,25.14
2016-05-22T06:59:19.150Z,25.13
2016-05-22T07:00:19.152Z,25.08
2016-05-22T07:01:19.156Z,25.08
2016-05-22T07:02:19.173Z,25.1
2016-05-22T07:03:19.191Z,25.05
2016-05-22T07:04:19.178Z,25.13
2016-05-22T07:05:19.197Z,25.1
2016-05-22T07:06:19.199Z,25.13
2016-05-22T07:07:19.218Z,25.08
2016-05-22T07:08:19.049Z,25.1
2016-05-22T07:09:19.067Z,25.13
2016-05-22T07:10:19.226Z,25.1
2016-05-22T07:11:19.244Z,25.13
2016-05-22T07:12:19.232Z,25.09
2016-05-22T07:13:19.687Z,25.06
2016-05-22T07:14:19.268Z,25.09
2016-05-22T07:15:19.271Z,25.09
2016-05-22T07:16:19.273Z,25.06
2016-05-22T07:17:19.276Z,25.18
2016-05-22T07:18:19.138Z,25.14
2016-05-22T07:19:19.313Z,25.18
2016-05-22T07:20:19.299Z,25.28
2016-05-22T07:21:19.318Z,25.33
2016-05-22T07:22:19.321Z,25.39
2016-05-22T07:23:19.340Z,25.5
2016-05-22T07:24:19.342Z,25.5
2016-05-22T07:25:19.345Z,25.51
2016-05-22T07:26:19.348Z,25.43
2016-05-22T07:27:19.365Z,25.52
2016-05-22T07:28:19.462Z,25.55
2016-05-22T07:29:19.230Z,25.51
2016-05-22T07:30:19.389Z,25.43
2016-05-22T07:31:19.251Z,25.5
2016-05-22T07:32:19.411Z,25.4
2016-05-22T07:33:19.444Z,25.47
2016-05-22T07:34:19.430Z,25.4
2016-05-22T07:35:19.433Z,25.4
2016-05-22T07:36:19.453Z,25.38
2016-05-22T07:37:19.299Z,25.24
2016-05-22T07:38:19.473Z,25.2
2016-05-22T07:39:19.475Z,25.23
2016-05-22T07:40:19.478Z,25.24
2016-05-22T07:41:19.480Z,25.2
2016-05-22T07:42:19.343Z,25.15
2016-05-22T07:43:19.627Z,25.14
2016-05-22T07:44:19.349Z,25.09
2016-05-22T07:45:19.523Z,25.2
2016-05-22T07:46:19.385Z,25.17
2016-05-22T07:47:19.543Z,25.13
2016-05-22T07:48:19.546Z,25.1
2016-05-22T07:49:19.394Z,25.08
2016-05-22T07:50:19.568Z,25.17
2016-05-22T07:51:19.570Z,25.08
2016-05-22T07:52:19.635Z,25.13
2016-05-22T07:53:19.654Z,25.06
2016-05-22T07:54:19.453Z,25.09
2016-05-22T07:55:19.598Z,25.14
2016-05-22T07:56:19.615Z,25.15
2016-05-22T07:57:19.633Z,25.13
2016-05-22T07:58:19.621Z,25.08
2016-05-22T07:59:19.639Z,25.14
2016-05-22T08:00:19.641Z,25.17
2016-05-22T08:01:19.645Z,25.18
2016-05-22T08:02:33.759Z,25.21
2016-05-22T08:03:19.712Z,25.13
2016-05-22T08:04:19.683Z,25.23
2016-05-22T08:05:19.687Z,25.17
2016-05-22T08:06:19.720Z,25.09
2016-05-22T08:07:19.691Z,25.15
2016-05-22T08:08:19.710Z,25.15
2016-05-22T08:09:19.556Z,25.14
2016-05-22T08:10:19.731Z,25.09
2016-05-22T08:11:19.578Z,25.17
2016-05-22T08:12:19.580Z,25.08
2016-05-22T08:13:19.911Z,25.09
2016-05-22T08:14:19.601Z,25.08
2016-05-22T08:15:19.776Z,25.08
2016-05-22T08:16:19.606Z,25.1
2016-05-22T08:17:19.781Z,25.08
2016-05-22T08:18:19.784Z,25.09
2016-05-22T08:19:19.787Z,25.06
2016-05-22T08:20:19.664Z,25.09
2016-05-22T08:21:19.807Z,25.14
2016-05-22T08:22:19.826Z,25.14
2016-05-22T08:23:19.844Z,25.06
2016-05-22T08:24:19.862Z,25.08
2016-05-22T08:25:19.834Z,25.09
2016-05-22T08:26:19.852Z,25.09
2016-05-22T08:27:19.714Z,25.06
2016-05-22T08:28:19.873Z,25.13
2016-05-22T08:29:19.876Z,25.03
2016-05-22T08:30:19.879Z,25.13
2016-05-22T08:31:19.897Z,25.1
2016-05-22T08:32:19.900Z,25.05
2016-05-22T08:33:19.902Z,25.09
2016-05-22T08:34:19.921Z,25.05
2016-05-22T08:35:19.923Z,25.06
2016-05-22T08:36:19.926Z,25.08
2016-05-22T08:37:19.944Z,25.08
2016-05-22T08:38:19.947Z,25.06
2016-05-22T08:39:19.965Z,25.06
2016-05-22T08:40:19.969Z,25.05
2016-05-22T08:41:19.986Z,25.03
2016-05-22T08:42:19.974Z,25.1
2016-05-22T08:43:20.319Z,25.08
2016-05-22T08:44:19.994Z,25.1
2016-05-22T08:45:20.028Z,25.09
2016-05-22T08:46:20.000Z,25.08
2016-05-22T08:47:20.018Z,25.03
2016-05-22T08:48:20.021Z,25.13
2016-05-22T08:49:20.023Z,25.09
2016-05-22T08:50:20.041Z,25.1
2016-05-22T08:51:20.044Z,25.13
2016-05-22T08:52:20.062Z,25.13
2016-05-22T08:53:20.081Z,25.05
2016-05-22T08:54:20.068Z,25.1
2016-05-22T08:55:20.071Z,25.03
2016-05-22T08:56:20.089Z,25.03
2016-05-22T08:57:20.092Z,25.05
2016-05-22T08:58:20.095Z,25.1
2016-05-22T08:59:20.097Z,25.05
2016-05-22T09:00:20.131Z,25.08
2016-05-22T09:01:20.117Z,25.14
2016-05-22T09:02:48.326Z,25.05
2016-05-22T09:03:20.139Z,25.13
2016-05-22T09:04:20.142Z,25.1
2016-05-22T09:05:20.144Z,25.05
2016-05-22T09:06:20.006Z,25.05
2016-05-22T09:07:20.009Z,25.06
2016-05-22T09:08:20.169Z,25.1
2016-05-22T09:09:20.186Z,25.1
2016-05-22T09:10:20.033Z,25.09
2016-05-22T09:11:20.192Z,25.09
2016-05-22T09:12:20.194Z,25.06
2016-05-22T09:13:20.213Z,25.08
2016-05-22T09:14:20.216Z,25.06
2016-05-22T09:15:20.063Z,25.09
2016-05-22T09:16:20.080Z,25.05
2016-05-22T09:17:20.238Z,25.09
2016-05-22T09:18:20.241Z,25.17
2016-05-22T09:19:20.276Z,25.05
2016-05-22T09:20:20.263Z,25.06
2016-05-22T09:21:20.281Z,25.06
2016-05-22T09:22:20.284Z,25.14
2016-05-22T09:23:20.318Z,25.06
2016-05-22T09:24:20.149Z,25.09
2016-05-22T09:25:20.307Z,25.08
2016-05-22T09:26:20.326Z,25.08
2016-05-22T09:27:20.313Z,25.08
2016-05-22T09:28:20.190Z,25.17
2016-05-22T09:29:20.334Z,25.17
2016-05-22T09:30:20.337Z,25.13
2016-05-22T09:31:20.340Z,25.09
2016-05-22T09:32:36.907Z,25.08
2016-05-22T09:33:20.361Z,25.14
2016-05-22T09:34:20.363Z,25.14
2016-05-22T09:35:20.381Z,25.18
2016-05-22T09:36:20.228Z,25.1
2016-05-22T09:37:20.402Z,25.14
2016-05-22T09:38:20.405Z,25.08
2016-05-22T09:39:20.408Z,25.14
2016-05-22T09:40:20.411Z,25.09
2016-05-22T09:41:20.428Z,25.06
2016-05-22T09:42:20.431Z,25.13
2016-05-22T09:43:20.497Z,25.17
2016-05-22T09:44:20.468Z,25.08
2016-05-22T09:45:20.330Z,25.1
2016-05-22T09:46:20.474Z,25.05
2016-05-22T09:47:20.477Z,25.06
2016-05-22T09:48:20.479Z,25.08
2016-05-22T09:49:20.482Z,25.06
2016-05-22T09:50:20.328Z,25.03
2016-05-22T09:51:20.502Z,25.15
2016-05-22T09:52:20.505Z,25.15
2016-05-22T09:53:20.524Z,25.06
2016-05-22T09:54:20.527Z,25.09
2016-05-22T09:55:20.373Z,25.13
2016-05-22T09:56:20.391Z,25.08
2016-05-22T09:57:20.550Z,25.1
2016-05-22T09:58:20.412Z,25.15
2016-05-22T09:59:20.587Z,25.18
2016-05-22T10:00:20.573Z,25.18
2016-05-22T10:01:20.576Z,25.2
2016-05-22T10:02:20.595Z,25.2
2016-05-22T10:03:20.425Z,25.02
2016-05-22T10:04:20.444Z,25.14
2016-05-22T10:05:20.603Z,25.09
2016-05-22T10:06:20.621Z,25.18
2016-05-22T10:07:20.624Z,25.06
2016-05-22T10:08:20.626Z,25.18
2016-05-22T10:09:20.645Z,25.15
2016-05-22T10:10:20.491Z,25.13
2016-05-22T10:11:20.650Z,25.14
2016-05-22T10:12:20.669Z,25.1
2016-05-22T10:13:21.327Z,25.08
2016-05-22T10:14:20.689Z,25.09
2016-05-22T10:15:20.708Z,25.1
2016-05-22T10:16:20.538Z,25.15
2016-05-22T10:17:20.698Z,25.15
2016-05-22T10:18:20.715Z,25.06
2016-05-22T10:19:20.719Z,25.13
2016-05-22T10:20:20.721Z,25.25
2016-05-22T10:21:20.740Z,25.08
2016-05-22T10:22:20.743Z,25.17
2016-05-22T10:23:20.604Z,25.2
2016-05-22T10:24:20.748Z,25.13
2016-05-22T10:25:20.766Z,25.18
2016-05-22T10:26:20.768Z,25.17
2016-05-22T10:27:20.787Z,25.14
2016-05-22T10:28:21.790Z,25.06
2016-05-22T10:29:20.792Z,25.17
2016-05-22T10:30:20.795Z,25.09
2016-05-22T10:31:20.828Z,25.1
2016-05-22T10:32:20.816Z,25.08
2016-05-22T10:33:20.819Z,25.14
2016-05-22T10:34:20.837Z,25.08
2016-05-22T10:35:20.684Z,25.09
2016-05-22T10:36:20.843Z,25.15
2016-05-22T10:37:20.704Z,25.23
2016-05-22T10:38:20.707Z,25.17
2016-05-22T10:39:20.866Z,25.05
2016-05-22T10:40:20.884Z,25.09
2016-05-22T10:41:20.903Z,25.08
2016-05-22T10:42:20.890Z,25.1
2016-05-22T10:43:21.095Z,25.1
2016-05-22T10:44:20.911Z,25.08
2016-05-22T10:45:20.913Z,25.2
2016-05-22T10:46:20.761Z,25.18
2016-05-22T10:47:20.918Z,25.14
2016-05-22T10:48:20.937Z,25.23
2016-05-22T10:49:20.955Z,25.21
2016-05-22T10:50:20.958Z,25.21
2016-05-22T10:51:20.961Z,25.17
2016-05-22T10:52:20.979Z,25.14
2016-05-22T10:53:20.982Z,25.17
2016-05-22T10:54:20.985Z,25.14
2016-05-22T10:55:20.988Z,25.1
2016-05-22T10:56:20.991Z,25.15
2016-05-22T10:57:21.023Z,25.08
2016-05-22T10:58:21.135Z,25.14
2016-05-22T10:59:21.076Z,25.09
2016-05-22T11:00:21.032Z,25.15
2016-05-22T11:01:21.051Z,25.14
2016-05-22T11:02:35.149Z,25.14
2016-05-22T11:03:20.899Z,25.1
2016-05-22T11:04:21.059Z,25.13
2016-05-22T11:05:21.077Z,25.14
2016-05-22T11:06:21.079Z,25.18
2016-05-22T11:07:21.097Z,25.15
2016-05-22T11:08:20.944Z,25.18
2016-05-22T11:09:21.103Z,25.13
2016-05-22T11:10:21.121Z,25.06
2016-05-22T11:11:21.125Z,25.15
2016-05-22T11:12:21.127Z,25.09
2016-05-22T11:13:21.489Z,25.17
2016-05-22T11:14:20.991Z,25.03
2016-05-22T11:15:20.994Z,25.08
2016-05-22T11:16:21.153Z,25.06
2016-05-22T11:17:21.172Z,25.05
2016-05-22T11:18:21.174Z,25.09
2016-05-22T11:19:21.177Z,25.03
2016-05-22T11:20:21.179Z,25.03
2016-05-22T11:21:21.197Z,25.1
2016-05-22T11:22:21.200Z,25.09
2016-05-22T11:23:21.078Z,25.1
2016-05-22T11:24:21.050Z,25.06
2016-05-22T11:25:21.083Z,25.08
2016-05-22T11:26:21.227Z,25.08
2016-05-22T11:27:21.074Z,25.08
2016-05-22T11:28:21.279Z,25.03
2016-05-22T11:29:21.251Z,25.09
2016-05-22T11:30:21.253Z,25.1
2016-05-22T11:31:21.271Z,25.1
2016-05-22T11:32:35.368Z,25.13
2016-05-22T11:33:21.293Z,25.09
2016-05-22T11:34:21.280Z,25.13
2016-05-22T11:35:21.142Z,25.02
2016-05-22T11:36:21.317Z,25.13
2016-05-22T11:37:21.304Z,25.1
2016-05-22T11:38:21.322Z,25.06
2016-05-22T11:39:21.340Z,25.05
2016-05-22T11:40:21.342Z,25.05
2016-05-22T11:41:21.189Z,25.08
2016-05-22T11:42:21.348Z,25.09
2016-05-22T11:43:21.492Z,25.02
2016-05-22T11:44:21.369Z,25.03
2016-05-22T11:45:21.434Z,25
2016-05-22T11:46:21.390Z,24.99
2016-05-22T11:47:21.393Z,25.06
2016-05-22T11:48:21.395Z,25
2016-05-22T11:49:21.397Z,25.09
2016-05-22T11:50:21.401Z,25.02
2016-05-22T11:51:21.263Z,25
2016-05-22T11:52:21.422Z,25.03
2016-05-22T11:53:21.113Z,24.93
2016-05-22T11:54:21.286Z,25
2016-05-22T11:55:21.446Z,25
2016-05-22T11:56:21.292Z,25
2016-05-22T11:57:21.466Z,25.05
2016-05-22T11:58:21.719Z,25.03
2016-05-22T11:59:21.471Z,25.05
2016-05-22T12:00:21.162Z,24.98
2016-05-22T12:01:21.493Z,25.05
2016-05-22T12:02:21.512Z,25.09
2016-05-22T12:03:21.499Z,25.06
2016-05-22T12:04:21.360Z,24.99
2016-05-22T12:05:21.520Z,25.08
2016-05-22T12:06:21.537Z,25.03
2016-05-22T12:07:21.368Z,25
2016-05-22T12:08:21.387Z,24.93
2016-05-22T12:09:21.389Z,25.02
2016-05-22T12:10:21.564Z,25.02
2016-05-22T12:11:21.567Z,25.05
2016-05-22T12:12:21.570Z,25
2016-05-22T12:13:21.838Z,25
2016-05-22T12:14:21.574Z,24.99
2016-05-22T12:15:21.578Z,24.98
2016-05-22T12:16:21.439Z,24.96
2016-05-22T12:17:21.614Z,25.05
2016-05-22T12:18:21.617Z,25
2016-05-22T12:19:21.619Z,24.96
2016-05-22T12:20:21.466Z,24.98
2016-05-22T12:21:21.483Z,24.96
2016-05-22T12:22:21.643Z,24.96
2016-05-22T12:23:21.489Z,24.99
2016-05-22T12:24:21.664Z,24.96
2016-05-22T12:25:21.667Z,25
2016-05-22T12:26:21.670Z,24.99
2016-05-22T12:27:21.688Z,25
2016-05-22T12:28:21.924Z,24.98
2016-05-22T12:29:21.693Z,24.99
2016-05-22T12:30:21.727Z,24.99
2016-05-22T12:31:21.714Z,24.95
2016-05-22T12:32:21.717Z,25
2016-05-22T12:33:21.720Z,25.05
2016-05-22T12:34:21.737Z,24.96
2016-05-22T12:35:21.756Z,25.05
2016-05-22T12:36:21.600Z,24.93
2016-05-22T12:37:21.780Z,25
2016-05-22T12:38:21.663Z,24.96
2016-05-22T12:39:21.841Z,25
2016-05-22T12:40:21.863Z,25.02
2016-05-22T12:41:21.877Z,25.05
2016-05-22T12:42:21.902Z,25
2016-05-22T12:43:22.397Z,24.98
2016-05-22T12:44:21.765Z,24.99
2016-05-22T12:45:21.947Z,24.98
2016-05-22T12:46:21.953Z,25.05
2016-05-22T12:47:21.959Z,25
2016-05-22T12:48:21.980Z,24.93
2016-05-22T12:49:21.986Z,24.99
2016-05-22T12:50:21.990Z,24.98
2016-05-22T12:51:21.854Z,25.02
2016-05-22T12:52:22.013Z,25.02
2016-05-22T12:53:22.017Z,24.99
2016-05-22T12:54:22.020Z,24.98
2016-05-22T12:55:22.024Z,25
2016-05-22T12:56:22.043Z,24.99
2016-05-22T12:57:22.077Z,24.99